createdAt,value
2023-08-26T00:00:53.318Z,8.33
2023-08-26T00:03:20.381Z,7.57
2023-08-26T00:05:49.832Z,10.83
2023-08-26T00:08:16.864Z,8.23
2023-08-26T00:10:43.767Z,7.77
2023-08-26T00:13:10.909Z,8.27
2023-08-26T00:15:38.100Z,9.83
2023-08-26T00:18:09.859Z,6.73
2023-08-26T00:20:37.109Z,15.03
2023-08-26T00:23:03.999Z,6.73
2023-08-26T00:25:31.298Z,10.97
2023-08-26T00:27:58.426Z,6.93
2023-08-26T00:30:25.984Z,6.87
2023-08-26T00:32:53.017Z,10.83
2023-08-26T00:35:19.941Z,12.47
2023-08-26T00:37:46.772Z,7.00
2023-08-26T00:40:13.909Z,6.77
2023-08-26T00:42:40.733Z,6.97
2023-08-26T00:45:08.428Z,8.03
2023-08-26T00:47:37.291Z,7.30
2023-08-26T00:50:04.710Z,11.50
2023-08-26T00:52:31.879Z,10.13
2023-08-26T00:54:59.336Z,11.97
2023-08-26T00:57:26.282Z,6.40
2023-08-26T00:59:53.708Z,10.50
2023-08-26T01:02:20.680Z,12.03
2023-08-26T01:04:47.759Z,7.63
2023-08-26T01:07:14.836Z,10.77
2023-08-26T01:09:42.508Z,12.07
2023-08-26T01:12:19.077Z,9.63
2023-08-26T01:14:47.994Z,7.27
2023-08-26T01:17:15.259Z,11.27
2023-08-26T01:19:43.512Z,5.77
2023-08-26T01:22:10.854Z,10.53
2023-08-26T01:24:41.062Z,9.07
2023-08-26T01:27:08.708Z,10.90
2023-08-26T01:29:36.724Z,8.87
2023-08-26T01:32:12.835Z,8.93
2023-08-26T01:34:40.209Z,7.27
2023-08-26T01:37:08.557Z,15.47
2023-08-26T01:39:35.461Z,9.03
2023-08-26T01:42:03.721Z,7.83
2023-08-26T01:44:31.985Z,8.07
2023-08-26T01:46:58.823Z,9.30
2023-08-26T01:49:25.730Z,10.00
2023-08-26T01:51:53.487Z,16.40
2023-08-26T01:54:20.420Z,12.37
2023-08-26T01:56:48.381Z,9.83
2023-08-26T01:59:15.429Z,8.90
2023-08-26T02:01:42.307Z,11.97
2023-08-26T02:04:09.213Z,11.13
2023-08-26T02:06:36.421Z,9.80
2023-08-26T02:09:03.354Z,13.43
2023-08-26T02:11:30.162Z,7.73
2023-08-26T02:13:58.429Z,9.97
2023-08-26T02:16:25.450Z,10.20
2023-08-26T02:18:53.820Z,8.57
2023-08-26T02:21:20.830Z,7.67
2023-08-26T02:23:47.662Z,9.23
2023-08-26T02:26:16.364Z,8.43
2023-08-26T02:28:43.999Z,10.67
2023-08-26T02:31:10.948Z,10.47
2023-08-26T02:33:37.841Z,8.60
2023-08-26T02:36:05.648Z,8.93
2023-08-26T02:38:35.392Z,9.47
2023-08-26T02:41:03.421Z,10.77
2023-08-26T02:43:30.356Z,9.97
2023-08-26T02:45:57.711Z,10.07
2023-08-26T02:48:24.719Z,10.27
2023-08-26T02:50:58.951Z,8.90
2023-08-26T02:53:27.337Z,8.30
2023-08-26T02:55:54.745Z,9.97
2023-08-26T02:58:23.157Z,11.63
2023-08-26T03:00:50.161Z,9.00
2023-08-26T03:03:17.263Z,8.17
2023-08-26T03:05:44.234Z,10.83
2023-08-26T03:08:11.082Z,14.00
2023-08-26T03:10:38.044Z,7.77
2023-08-26T03:13:07.513Z,10.20
2023-08-26T03:15:35.949Z,9.93
2023-08-26T03:18:02.887Z,9.50
2023-08-26T03:20:29.793Z,13.47
2023-08-26T03:22:56.765Z,12.33
2023-08-26T03:25:25.088Z,8.97
2023-08-26T03:27:52.737Z,9.00
2023-08-26T03:30:20.589Z,9.00
2023-08-26T03:32:47.621Z,12.37
2023-08-26T03:35:14.609Z,10.13
2023-08-26T03:37:41.573Z,8.27
2023-08-26T03:40:10.248Z,9.53
2023-08-26T03:42:37.353Z,10.70
2023-08-26T03:45:05.846Z,9.17
2023-08-26T03:47:33.522Z,10.13
2023-08-26T03:50:01.808Z,9.80
2023-08-26T03:52:28.713Z,7.73
2023-08-26T03:54:55.654Z,14.93
2023-08-26T03:57:22.742Z,8.00
2023-08-26T03:59:50.803Z,8.40
2023-08-26T04:02:17.728Z,8.80
2023-08-26T04:04:44.749Z,7.93
2023-08-26T04:07:11.665Z,11.27
2023-08-26T04:09:38.687Z,8.37
2023-08-26T04:12:05.751Z,10.07
2023-08-26T04:14:32.664Z,7.40
2023-08-26T04:16:59.501Z,8.47
2023-08-26T04:19:26.795Z,6.57
2023-08-26T04:21:55.059Z,7.60
2023-08-26T04:24:21.924Z,6.83
2023-08-26T04:26:48.796Z,6.73
2023-08-26T04:29:16.838Z,8.30
2023-08-26T04:31:45.036Z,7.40
2023-08-26T04:34:14.818Z,8.50
2023-08-26T04:36:41.626Z,8.47
2023-08-26T04:39:12.504Z,8.77
2023-08-26T04:41:40.418Z,10.10
2023-08-26T04:44:09.078Z,12.07
2023-08-26T04:46:37.141Z,9.97
2023-08-26T04:49:04.102Z,14.93
2023-08-26T04:51:30.884Z,10.00
2023-08-26T04:53:58.677Z,13.30
2023-08-26T04:56:28.388Z,12.33
2023-08-26T04:58:55.572Z,13.67
2023-08-26T05:01:22.556Z,8.47
2023-08-26T05:03:50.586Z,14.00
2023-08-26T05:06:17.652Z,9.50
2023-08-26T05:08:45.247Z,11.60
2023-08-26T05:11:12.070Z,9.57
2023-08-26T05:13:39.104Z,11.83
2023-08-26T05:16:06.012Z,11.30
2023-08-26T05:18:33.040Z,11.03
2023-08-26T05:21:01.443Z,13.23
2023-08-26T05:23:28.555Z,12.60
2023-08-26T05:25:55.627Z,10.77
2023-08-26T05:28:23.121Z,11.23
2023-08-26T05:30:50.041Z,11.10
2023-08-26T05:33:17.307Z,8.40
2023-08-26T05:35:44.927Z,11.07
2023-08-26T05:38:11.891Z,9.40
2023-08-26T05:40:38.749Z,9.17
2023-08-26T05:43:05.991Z,10.53
2023-08-26T05:45:35.669Z,15.60
2023-08-26T05:48:02.708Z,8.63
2023-08-26T05:50:31.647Z,9.37
2023-08-26T05:52:58.574Z,13.77
2023-08-26T05:55:25.993Z,10.00
2023-08-26T05:57:52.961Z,7.83
2023-08-26T06:00:19.934Z,8.93
2023-08-26T06:02:51.126Z,10.57
2023-08-26T06:05:19.927Z,11.00
2023-08-26T06:07:48.585Z,11.20
2023-08-26T06:10:15.518Z,7.53
2023-08-26T06:12:42.816Z,8.77
2023-08-26T06:15:13.116Z,8.90
2023-08-26T06:17:42.786Z,11.23
2023-08-26T06:20:16.041Z,8.47
2023-08-26T06:22:43.950Z,12.20
2023-08-26T06:25:11.487Z,10.23
2023-08-26T06:27:38.433Z,8.10
2023-08-26T06:30:05.662Z,8.53
2023-08-26T06:32:33.990Z,9.77
2023-08-26T06:35:02.046Z,10.60
2023-08-26T06:37:28.932Z,9.30
2023-08-26T06:39:55.827Z,9.27
2023-08-26T06:42:23.077Z,7.87
2023-08-26T06:44:55.840Z,8.27
2023-08-26T06:47:22.876Z,7.40
2023-08-26T06:49:51.399Z,9.20
2023-08-26T06:52:18.288Z,10.20
2023-08-26T06:54:45.189Z,7.87
2023-08-26T06:57:12.070Z,11.03
2023-08-26T06:59:38.922Z,8.03
2023-08-26T07:02:07.182Z,9.00
2023-08-26T07:04:34.045Z,7.93
2023-08-26T07:07:00.967Z,8.87
2023-08-26T07:09:27.806Z,9.80
2023-08-26T07:11:54.635Z,9.00
2023-08-26T07:14:21.577Z,6.80
2023-08-26T07:16:48.514Z,8.73
2023-08-26T07:19:15.347Z,8.00
2023-08-26T07:21:42.388Z,10.23
2023-08-26T07:24:10.403Z,7.50
2023-08-26T07:26:37.863Z,7.60
2023-08-26T07:29:05.098Z,11.63
2023-08-26T07:31:34.136Z,8.87
2023-08-26T07:34:00.996Z,9.57
2023-08-26T07:36:27.891Z,8.97
2023-08-26T07:38:55.456Z,8.70
2023-08-26T07:41:22.343Z,7.27
2023-08-26T07:43:49.221Z,8.70
2023-08-26T07:48:50.575Z,7.23
2023-08-26T07:51:17.753Z,8.90
2023-08-26T07:53:44.686Z,7.10
2023-08-26T07:56:11.654Z,10.37
2023-08-26T07:58:38.502Z,11.07
2023-08-26T08:01:06.207Z,10.30
2023-08-26T08:03:33.176Z,7.47
2023-08-26T08:06:00.107Z,8.53
2023-08-26T08:08:27.120Z,7.27
2023-08-26T08:10:54.087Z,10.00
2023-08-26T08:13:20.984Z,8.13
2023-08-26T08:15:47.826Z,5.90
2023-08-26T08:18:14.794Z,7.60
2023-08-26T08:20:41.600Z,4.70
2023-08-26T08:23:08.448Z,10.07
2023-08-26T08:25:35.387Z,5.23
2023-08-26T08:28:02.694Z,7.83
2023-08-26T08:30:29.911Z,8.83
2023-08-26T08:32:57.101Z,5.47
2023-08-26T08:35:24.606Z,7.00
2023-08-26T08:37:51.393Z,5.67
2023-08-26T08:40:18.367Z,8.60
2023-08-26T08:42:45.964Z,6.80
2023-08-26T08:45:14.461Z,5.77
2023-08-26T08:47:41.684Z,4.30
2023-08-26T08:50:09.722Z,6.33
2023-08-26T08:52:36.622Z,5.57
2023-08-26T08:55:07.070Z,5.20
2023-08-26T08:57:35.950Z,5.17
2023-08-26T09:00:04.428Z,5.03
2023-08-26T09:02:31.565Z,4.47
2023-08-26T09:04:58.744Z,3.20
2023-08-26T09:07:26.323Z,4.67
2023-08-26T09:10:01.942Z,4.83
2023-08-26T09:12:32.626Z,5.97
2023-08-26T09:14:59.549Z,6.67
2023-08-26T09:17:26.408Z,6.10
2023-08-26T09:20:01.001Z,8.20
2023-08-26T09:22:28.835Z,3.70
2023-08-26T09:25:00.180Z,5.13
2023-08-26T09:27:27.303Z,5.33
2023-08-26T09:29:54.391Z,5.93
2023-08-26T09:32:33.997Z,7.50
2023-08-26T09:35:15.410Z,5.80
2023-08-26T09:37:46.101Z,5.07
2023-08-26T09:40:13.914Z,5.67
2023-08-26T09:42:41.390Z,7.97
2023-08-26T09:45:11.756Z,4.77
2023-08-26T09:47:39.108Z,6.03
2023-08-26T09:50:06.416Z,7.30
2023-08-26T09:52:42.862Z,4.23
2023-08-26T09:55:10.518Z,6.03
2023-08-26T09:57:37.357Z,5.30
2023-08-26T10:00:04.681Z,7.93
2023-08-26T10:02:46.337Z,6.67
2023-08-26T10:05:16.705Z,4.87
2023-08-26T10:07:46.981Z,6.33
2023-08-26T10:10:34.365Z,8.23
2023-08-26T10:13:03.385Z,9.03
2023-08-26T10:15:31.756Z,4.77
2023-08-26T10:18:00.975Z,5.00
2023-08-26T10:20:28.457Z,8.53
2023-08-26T10:22:56.268Z,6.03
2023-08-26T10:25:23.316Z,4.37
2023-08-26T10:27:50.525Z,6.80
2023-08-26T10:30:18.457Z,8.63
2023-08-26T10:32:46.441Z,7.07
2023-08-26T10:35:14.436Z,7.40
2023-08-26T10:37:41.781Z,8.37
2023-08-26T10:40:16.124Z,7.07
2023-08-26T10:43:01.718Z,5.00
2023-08-26T10:45:28.778Z,5.07
2023-08-26T10:47:56.346Z,4.73
2023-08-26T10:50:23.699Z,6.67
2023-08-26T10:52:56.209Z,7.20
2023-08-26T10:55:30.464Z,9.50
2023-08-26T10:58:23.784Z,6.37
2023-08-26T11:00:51.584Z,5.03
2023-08-26T11:03:19.778Z,12.23
2023-08-26T11:05:47.237Z,8.40
2023-08-26T11:08:14.810Z,5.80
2023-08-26T11:10:42.452Z,5.23
2023-08-26T11:13:10.719Z,6.13
2023-08-26T11:15:42.488Z,9.80
2023-08-26T11:18:10.301Z,4.93
2023-08-26T11:20:37.808Z,7.77
2023-08-26T11:23:05.513Z,5.57
2023-08-26T11:25:34.108Z,8.97
2023-08-26T11:28:07.034Z,10.93
2023-08-26T11:30:37.621Z,5.47
2023-08-26T11:33:10.099Z,5.03
2023-08-26T11:35:41.547Z,6.13
2023-08-26T11:38:10.849Z,6.30
2023-08-26T11:40:37.710Z,4.70
2023-08-26T11:43:11.151Z,6.20
2023-08-26T11:45:39.481Z,6.37
2023-08-26T11:48:06.764Z,5.70
2023-08-26T11:50:35.164Z,4.70
2023-08-26T11:53:04.095Z,7.73
2023-08-26T11:55:34.525Z,9.30
2023-08-26T11:58:02.160Z,10.60
2023-08-26T12:00:29.408Z,7.70
2023-08-26T12:03:01.135Z,5.23
2023-08-26T12:05:28.096Z,5.73
2023-08-26T12:07:59.079Z,6.47
2023-08-26T12:10:27.238Z,8.50
2023-08-26T12:13:02.035Z,9.67
2023-08-26T12:15:30.145Z,16.17
2023-08-26T12:17:57.290Z,5.83
2023-08-26T12:20:24.474Z,6.43
2023-08-26T12:22:51.979Z,6.73
2023-08-26T12:25:19.598Z,9.33
2023-08-26T12:27:46.669Z,7.70
2023-08-26T12:30:13.691Z,15.47
2023-08-26T12:33:05.596Z,8.87
2023-08-26T12:35:32.569Z,6.20
2023-08-26T12:37:59.832Z,10.10
2023-08-26T12:40:26.853Z,16.70
2023-08-26T12:42:53.727Z,7.20
2023-08-26T12:45:20.693Z,8.77
2023-08-26T12:47:47.670Z,7.17
2023-08-26T12:50:14.565Z,5.13
2023-08-26T12:52:42.021Z,4.93
2023-08-26T12:55:09.057Z,6.33
2023-08-26T12:57:35.847Z,11.47
2023-08-26T13:00:05.566Z,12.60
2023-08-26T13:02:37.816Z,6.73
2023-08-26T13:05:05.590Z,5.37
2023-08-26T13:07:32.685Z,5.13
2023-08-26T13:10:01.482Z,9.47
2023-08-26T13:12:30.347Z,13.67
2023-08-26T13:14:57.249Z,5.90
2023-08-26T13:17:26.278Z,6.47
2023-08-26T13:19:54.192Z,5.80
2023-08-26T13:22:21.028Z,8.60
2023-08-26T13:24:47.989Z,8.60
2023-08-26T13:27:14.823Z,11.17
2023-08-26T13:29:41.775Z,6.23
2023-08-26T13:32:08.719Z,7.73
2023-08-26T13:34:35.548Z,9.53
2023-08-26T13:37:03.241Z,7.37
2023-08-26T13:39:30.030Z,5.63
2023-08-26T13:41:57.217Z,9.27
2023-08-26T13:44:24.092Z,5.67
2023-08-26T13:46:50.975Z,6.00
2023-08-26T13:49:17.785Z,7.07
2023-08-26T13:51:44.776Z,5.13
2023-08-26T13:54:11.560Z,4.47
2023-08-26T13:56:38.557Z,8.00
2023-08-26T13:59:05.469Z,4.00
2023-08-26T14:01:32.405Z,6.07
2023-08-26T14:03:59.458Z,3.87
2023-08-26T14:06:26.371Z,3.20
2023-08-26T14:08:53.205Z,3.70
2023-08-26T14:11:21.863Z,4.23
2023-08-26T14:13:50.310Z,5.93
2023-08-26T14:16:17.235Z,6.23
2023-08-26T14:18:44.344Z,9.60
2023-08-26T14:21:11.171Z,5.30
2023-08-26T14:23:38.063Z,5.50
2023-08-26T14:26:04.919Z,5.17
2023-08-26T14:28:31.789Z,5.57
2023-08-26T14:30:58.877Z,5.17
2023-08-26T14:33:25.705Z,4.57
2023-08-26T14:35:53.357Z,5.03
2023-08-26T14:38:20.656Z,6.40
2023-08-26T14:40:48.544Z,5.53
2023-08-26T14:43:18.915Z,6.40
2023-08-26T14:45:46.937Z,5.20
2023-08-26T14:48:13.996Z,4.17
2023-08-26T14:50:41.164Z,6.50
2023-08-26T14:53:08.214Z,4.43
2023-08-26T14:55:39.134Z,5.53
2023-08-26T14:58:06.084Z,3.93
2023-08-26T15:00:32.881Z,4.37
2023-08-26T15:02:59.893Z,5.90
2023-08-26T15:05:26.835Z,4.03
2023-08-26T15:07:53.719Z,6.53
2023-08-26T15:10:20.735Z,8.93
2023-08-26T15:12:48.097Z,4.67
2023-08-26T15:15:15.078Z,3.97
2023-08-26T15:17:43.201Z,4.40
2023-08-26T15:20:10.358Z,7.17
2023-08-26T15:22:37.204Z,3.57
2023-08-26T15:25:04.549Z,5.53
2023-08-26T15:27:31.960Z,5.93
2023-08-26T15:29:59.131Z,4.40
2023-08-26T15:32:26.057Z,5.33
2023-08-26T15:34:53.160Z,5.83
2023-08-26T15:37:19.965Z,7.03
2023-08-26T15:39:46.973Z,5.40
2023-08-26T15:42:13.935Z,4.00
2023-08-26T15:44:40.981Z,3.80
2023-08-26T15:47:07.886Z,8.80
2023-08-26T15:49:34.794Z,5.47
2023-08-26T15:52:01.994Z,3.67
2023-08-26T15:54:28.943Z,4.47
2023-08-26T15:56:55.832Z,5.67
2023-08-26T15:59:22.669Z,3.63
2023-08-26T16:01:49.458Z,5.33
2023-08-26T16:04:16.726Z,5.13
2023-08-26T16:06:43.523Z,4.00
2023-08-26T16:09:10.427Z,5.80
2023-08-26T16:11:37.440Z,3.97
2023-08-26T16:14:04.394Z,4.80
2023-08-26T16:16:31.272Z,6.33
2023-08-26T16:18:58.373Z,4.40
2023-08-26T16:21:25.786Z,7.27
2023-08-26T16:23:52.745Z,6.17
2023-08-26T16:26:19.623Z,4.80
2023-08-26T16:28:47.770Z,4.87
2023-08-26T16:31:14.735Z,5.30
2023-08-26T16:33:42.655Z,5.33
2023-08-26T16:36:10.369Z,6.27
2023-08-26T16:38:37.306Z,4.10
2023-08-26T16:41:04.133Z,4.47
2023-08-26T16:43:31.759Z,5.40
2023-08-26T16:45:59.171Z,6.97
2023-08-26T16:48:27.008Z,4.17
2023-08-26T16:50:58.265Z,7.50
2023-08-26T16:53:25.963Z,4.73
2023-08-26T16:55:53.066Z,6.70
2023-08-26T16:58:20.036Z,12.77
2023-08-26T17:00:47.015Z,6.23
2023-08-26T17:03:14.367Z,6.80
2023-08-26T17:05:47.963Z,10.03
2023-08-26T17:08:14.963Z,4.57
2023-08-26T17:10:41.927Z,5.40
2023-08-26T17:13:08.809Z,7.63
2023-08-26T17:15:35.765Z,5.43
2023-08-26T17:18:02.710Z,6.47
2023-08-26T17:20:29.534Z,5.13
2023-08-26T17:22:57.045Z,13.57
2023-08-26T17:25:24.098Z,5.17
2023-08-26T17:27:51.016Z,4.70
2023-08-26T17:30:17.793Z,5.43
2023-08-26T17:32:47.249Z,6.63
2023-08-26T17:35:14.274Z,8.17
2023-08-26T17:37:41.102Z,8.47
2023-08-26T17:40:08.124Z,4.97
2023-08-26T17:42:37.556Z,6.07
2023-08-26T17:45:04.749Z,6.50
2023-08-26T17:47:31.617Z,8.93
2023-08-26T17:49:58.561Z,17.93
2023-08-26T17:52:25.840Z,14.90
2023-08-26T17:54:53.909Z,10.43
2023-08-26T17:57:20.907Z,7.57
2023-08-26T17:59:47.851Z,8.43
2023-08-26T18:02:14.790Z,12.73
2023-08-26T18:04:41.692Z,9.73
2023-08-26T18:07:08.540Z,13.93
2023-08-26T18:09:35.712Z,14.23
2023-08-26T18:12:02.599Z,11.80
2023-08-26T18:14:29.514Z,13.60
2023-08-26T18:16:56.333Z,8.43
2023-08-26T18:19:23.517Z,11.47
2023-08-26T18:21:50.352Z,4.90
2023-08-26T18:24:17.248Z,9.23
2023-08-26T18:26:44.130Z,5.60
2023-08-26T18:29:11.054Z,5.67
2023-08-26T18:31:37.902Z,5.47
2023-08-26T18:34:07.496Z,5.17
2023-08-26T18:36:34.537Z,5.93
2023-08-26T18:39:01.368Z,8.13
2023-08-26T18:41:28.200Z,9.73
2023-08-26T18:43:55.380Z,6.83
2023-08-26T18:46:22.259Z,5.97
2023-08-26T18:48:49.322Z,6.53
2023-08-26T18:51:16.122Z,7.70
2023-08-26T18:53:43.083Z,8.00
2023-08-26T18:56:10.040Z,8.97
2023-08-26T18:58:37.107Z,11.00
2023-08-26T19:01:04.140Z,10.07
2023-08-26T19:03:31.036Z,12.97
2023-08-26T19:05:58.074Z,12.70
2023-08-26T19:08:24.922Z,10.07
2023-08-26T19:10:56.976Z,8.07
2023-08-26T19:13:24.072Z,9.37
2023-08-26T19:15:52.999Z,10.30
2023-08-26T19:18:20.071Z,14.50
2023-08-26T19:20:46.959Z,8.27
2023-08-26T19:23:13.847Z,8.83
2023-08-26T19:25:42.107Z,7.60
2023-08-26T19:28:10.272Z,12.87
2023-08-26T19:30:37.158Z,12.23
2023-08-26T19:33:04.133Z,13.43
2023-08-26T19:35:31.024Z,8.63
2023-08-26T19:37:57.959Z,8.40
2023-08-26T19:40:25.187Z,10.80
2023-08-26T19:42:52.048Z,9.10
2023-08-26T19:45:19.768Z,15.90
2023-08-26T19:47:46.720Z,10.30
2023-08-26T19:50:15.594Z,10.07
2023-08-26T19:52:44.073Z,9.07
2023-08-26T19:55:11.348Z,10.40
2023-08-26T19:57:38.184Z,8.77
2023-08-26T20:00:06.241Z,9.47
2023-08-26T20:02:39.090Z,8.47
2023-08-26T20:05:06.638Z,7.90
2023-08-26T20:07:33.577Z,6.77
2023-08-26T20:10:00.998Z,11.63
2023-08-26T20:12:29.839Z,7.80
2023-08-26T20:15:02.584Z,10.63
2023-08-26T20:17:30.000Z,6.90
2023-08-26T20:19:57.040Z,12.17
2023-08-26T20:22:24.033Z,9.33
2023-08-26T20:24:50.825Z,11.97
2023-08-26T20:27:17.714Z,7.63
2023-08-26T20:29:44.578Z,7.57
2023-08-26T20:32:11.406Z,9.13
2023-08-26T20:34:38.355Z,15.40
2023-08-26T20:37:05.381Z,8.67
2023-08-26T20:39:33.502Z,13.87
2023-08-26T20:42:02.704Z,14.50
2023-08-26T20:44:31.085Z,13.67
2023-08-26T20:46:57.907Z,20.40
2023-08-26T20:49:24.840Z,19.67
2023-08-26T20:51:52.465Z,18.07
2023-08-26T20:54:19.325Z,16.37
2023-08-26T20:56:46.154Z,17.83
2023-08-26T20:59:13.193Z,16.73
2023-08-26T21:01:40.087Z,16.97
2023-08-26T21:04:07.248Z,18.63
2023-08-26T21:06:34.134Z,18.43
2023-08-26T21:09:01.003Z,15.57
2023-08-26T21:11:27.820Z,21.70
2023-08-26T21:13:54.792Z,16.27
2023-08-26T21:16:22.350Z,17.03
2023-08-26T21:18:49.375Z,20.30
2023-08-26T21:21:16.274Z,19.77
2023-08-26T21:23:43.180Z,23.23
2023-08-26T21:26:10.055Z,21.43
2023-08-26T21:28:36.995Z,25.10
2023-08-26T21:31:07.799Z,26.17
2023-08-26T21:33:34.667Z,22.87
2023-08-26T21:36:02.926Z,23.73
2023-08-26T21:38:30.336Z,25.57
2023-08-26T21:40:57.479Z,21.83
2023-08-26T21:43:24.415Z,25.30
2023-08-26T21:45:51.248Z,25.77
2023-08-26T21:48:18.149Z,22.97
2023-08-26T21:50:45.273Z,21.27
2023-08-26T21:53:12.192Z,24.53
2023-08-26T21:55:39.683Z,20.73
2023-08-26T21:58:07.487Z,20.80
2023-08-26T22:00:34.973Z,18.73
2023-08-26T22:03:02.651Z,16.87
2023-08-26T22:05:31.402Z,18.73
2023-08-26T22:07:58.789Z,20.53
2023-08-26T22:10:26.242Z,20.90
2023-08-26T22:12:56.830Z,20.57
2023-08-26T22:15:25.168Z,20.27
2023-08-26T22:17:52.605Z,15.87
2023-08-26T22:20:19.666Z,19.83
2023-08-26T22:22:46.874Z,19.07
2023-08-26T22:25:13.806Z,21.60
2023-08-26T22:27:41.777Z,16.40
2023-08-26T22:30:09.425Z,20.83
2023-08-26T22:32:36.808Z,21.17
2023-08-26T22:35:04.497Z,19.10
2023-08-26T22:37:33.403Z,21.20
2023-08-26T22:40:00.271Z,21.87
2023-08-26T22:42:27.521Z,22.47
2023-08-26T22:44:54.542Z,20.00
2023-08-26T22:47:21.555Z,19.27
2023-08-26T22:49:48.452Z,21.23
2023-08-26T22:52:15.274Z,19.67
2023-08-26T22:54:42.257Z,25.83
2023-08-26T22:57:09.103Z,15.23
2023-08-26T22:59:36.041Z,19.53
2023-08-26T23:02:03.000Z,15.50
2023-08-26T23:04:30.525Z,18.27
2023-08-26T23:06:57.717Z,17.83
2023-08-26T23:09:24.618Z,26.10
2023-08-26T23:11:51.932Z,21.63
2023-08-26T23:14:19.062Z,20.53
2023-08-26T23:16:45.887Z,25.97
2023-08-26T23:19:12.829Z,17.00
2023-08-26T23:21:39.664Z,16.00
2023-08-26T23:24:07.101Z,13.93
2023-08-26T23:26:33.931Z,18.30
2023-08-26T23:29:00.827Z,16.17
2023-08-26T23:31:27.744Z,19.00
2023-08-26T23:33:55.898Z,18.50
2023-08-26T23:36:24.348Z,16.63
2023-08-26T23:38:51.222Z,16.57
2023-08-26T23:41:18.090Z,14.77
2023-08-26T23:43:44.999Z,16.63
2023-08-26T23:46:11.829Z,11.27
2023-08-26T23:48:38.822Z,13.77
2023-08-26T23:51:05.768Z,15.67
2023-08-26T23:53:32.612Z,16.37
2023-08-26T23:55:59.492Z,14.10
2023-08-26T23:58:27.624Z,10.13
